Time;durP1;ratioP1;P1;durP2;ratioP2;P2;SDS_P1;SDS_P2;PMS_P1;PMS_P2;Temp;Humidity;BMP_temperature;BMP_pressure;BME280_temperature;BME280_humidity;BME280_pressure;Samples;Min_cycle;Max_cycle;Signal;HPM_P1;HPM_P2
2021/03/25 00:01:12;;;;;;;12.15;6.60;;;5.10;70.20;;;;;;4993396;28;20538;-73
2021/03/25 00:03:38;;;;;;;15.30;7.50;;;5.10;70.20;;;;;;4993310;28;20030;-73
2021/03/25 00:06:05;;;;;;;12.93;6.55;;;5.10;70.30;;;;;;4993326;28;20035;-73
2021/03/25 00:08:31;;;;;;;13.27;6.63;;;5.20;70.20;;;;;;4993089;28;20034;-73
2021/03/25 00:10:56;;;;;;;11.50;6.45;;;5.20;70.10;;;;;;4993313;28;20080;-73
2021/03/25 00:13:22;;;;;;;10.27;6.50;;;5.10;70.40;;;;;;4995778;28;20472;-74
2021/03/25 00:15:48;;;;;;;10.35;5.80;;;5.10;70.50;;;;;;4996666;28;20022;-73
2021/03/25 00:18:15;;;;;;;9.75;5.38;;;5.00;70.70;;;;;;4996782;28;20042;-73
2021/03/25 00:20:41;;;;;;;12.02;6.15;;;5.00;71.00;;;;;;4996644;28;20341;-73
2021/03/25 00:23:08;;;;;;;11.60;6.38;;;5.00;70.80;;;;;;4981703;28;20467;-73
2021/03/25 00:25:36;;;;;;;12.07;6.22;;;5.00;70.80;;;;;;4997818;28;20033;-73
2021/03/25 00:28:03;;;;;;;14.32;6.95;;;5.00;70.80;;;;;;4996635;28;20101;-74
2021/03/25 00:30:31;;;;;;;11.15;6.25;;;5.00;70.80;;;;;;4996656;28;20120;-73
2021/03/25 00:32:59;;;;;;;14.85;6.30;;;5.00;70.90;;;;;;4997400;28;20023;-74
2021/03/25 00:35:26;;;;;;;12.35;6.80;;;5.00;71.00;;;;;;5005337;28;20049;-74
2021/03/25 00:37:52;;;;;;;13.13;6.68;;;5.00;71.10;;;;;;4999216;28;20042;-74
2021/03/25 00:40:19;;;;;;;11.88;6.25;;;5.00;71.10;;;;;;4996907;28;20026;-73
2021/03/25 00:42:44;;;;;;;10.68;6.45;;;5.10;71.00;;;;;;4995797;28;20380;-74
2021/03/25 00:45:26;;;;;;;12.95;6.55;;;5.10;70.90;;;;;;5008301;28;20050;-74
2021/03/25 00:47:51;;;;;;;12.25;6.30;;;5.00;70.80;;;;;;5007618;28;20400;-75
2021/03/25 00:50:28;;;;;;;10.23;5.60;;;5.00;70.90;;;;;;5004268;28;20118;-74
2021/03/25 00:52:53;;;;;;;13.30;6.00;;;5.00;70.90;;;;;;5000515;28;20034;-75
2021/03/25 00:55:20;;;;;;;11.23;6.10;;;5.00;70.80;;;;;;4998462;28;20022;-74
2021/03/25 00:57:45;;;;;;;13.60;6.50;;;5.00;70.70;;;;;;4997142;28;20112;-74
2021/03/25 01:00:15;;;;;;;11.70;6.28;;;5.00;71.10;;;;;;5000391;28;20046;-75
2021/03/25 01:02:40;;;;;;;11.20;6.70;;;5.00;70.70;;;;;;5017240;28;20115;-75
2021/03/25 01:05:06;;;;;;;10.63;5.53;;;4.90;70.80;;;;;;5005394;28;20507;-75
2021/03/25 01:07:32;;;;;;;13.15;5.72;;;4.90;70.70;;;;;;4997428;28;20510;-74
2021/03/25 01:09:57;;;;;;;11.02;6.18;;;4.90;70.70;;;;;;4997664;28;20026;-74
2021/03/25 01:12:23;;;;;;;9.77;5.20;;;4.90;70.60;;;;;;4997379;28;20498;-74
2021/03/25 01:14:49;;;;;;;13.40;6.03;;;4.90;70.50;;;;;;4996900;28;20026;-74
2021/03/25 01:17:14;;;;;;;10.95;6.15;;;4.90;70.30;;;;;;4996647;28;20041;-74
2021/03/25 01:19:40;;;;;;;10.85;5.78;;;4.90;70.40;;;;;;4996779;28;20025;-75
2021/03/25 01:22:06;;;;;;;10.82;6.15;;;4.80;70.30;;;;;;4987369;28;20073;-73
2021/03/25 01:24:31;;;;;;;11.68;6.07;;;4.90;70.50;;;;;;4995638;28;20038;-74
2021/03/25 01:26:57;;;;;;;9.50;5.70;;;4.90;70.40;;;;;;4996299;28;20034;-74
2021/03/25 01:29:22;;;;;;;9.98;5.57;;;4.90;70.40;;;;;;4996330;28;20034;-74
2021/03/25 01:31:49;;;;;;;12.10;5.93;;;4.80;70.50;;;;;;4996412;28;20022;-73
2021/03/25 01:34:17;;;;;;;10.18;5.88;;;4.80;70.60;;;;;;4996221;28;20030;-74
2021/03/25 01:36:43;;;;;;;11.50;6.00;;;4.80;70.70;;;;;;4977155;28;20054;-74
2021/03/25 01:39:09;;;;;;;9.52;5.78;;;4.80;70.70;;;;;;4976493;28;20463;-74
2021/03/25 01:41:36;;;;;;;10.30;5.32;;;4.70;70.50;;;;;;4976432;28;20057;-75
2021/03/25 01:44:03;;;;;;;11.73;5.60;;;4.70;70.40;;;;;;4976608;28;20019;-74
2021/03/25 01:46:36;;;;;;;12.73;5.88;;;4.70;70.30;;;;;;4976270;28;20030;-75
2021/03/25 01:49:05;;;;;;;10.32;5.90;;;4.70;70.30;;;;;;4976211;28;20022;-75
2021/03/25 01:51:49;;;;;;;10.80;6.05;;;4.70;70.20;;;;;;4976019;28;20023;-74
2021/03/25 01:54:26;;;;;;;11.27;5.32;;;4.70;70.30;;;;;;4976178;28;20058;-74
2021/03/25 01:57:03;;;;;;;8.98;4.80;;;4.60;70.20;;;;;;4975983;28;20421;-74
2021/03/25 01:59:35;;;;;;;11.38;5.20;;;4.60;70.50;;;;;;4975624;28;20062;-74
2021/03/25 02:02:20;;;;;;;9.05;5.00;;;4.60;70.80;;;;;;4975955;28;20391;-74
2021/03/25 02:05:01;;;;;;;7.63;3.63;;;4.70;70.90;;;;;;4975460;28;20031;-74
2021/03/25 02:07:57;;;;;;;11.38;5.55;;;4.60;70.70;;;;;;4975241;28;20046;-74
2021/03/25 02:10:25;;;;;;;8.43;4.80;;;4.70;70.80;;;;;;4975499;28;20026;-74
2021/03/25 02:13:07;;;;;;;11.50;5.03;;;4.70;70.70;;;;;;4974946;28;20034;-74
2021/03/25 02:15:54;;;;;;;11.13;5.20;;;4.70;70.70;;;;;;4974825;28;20125;-74
2021/03/25 02:18:28;;;;;;;10.88;5.00;;;4.60;70.60;;;;;;4975119;28;20512;-74
2021/03/25 02:21:12;;;;;;;10.00;5.00;;;4.60;70.50;;;;;;4975075;28;20031;-74
2021/03/25 02:23:50;;;;;;;10.23;5.18;;;4.60;70.40;;;;;;4973618;28;20034;-74
2021/03/25 02:26:24;;;;;;;10.05;4.60;;;4.60;70.70;;;;;;4974994;28;20436;-74
2021/03/25 02:29:23;;;;;;;6.60;3.40;;;4.50;70.90;;;;;;4975299;28;20097;-74
2021/03/25 02:31:54;;;;;;;9.95;4.82;;;4.50;71.00;;;;;;4974688;28;20054;-75
2021/03/25 02:34:23;;;;;;;10.77;4.70;;;4.50;71.00;;;;;;4974617;28;20026;-74
2021/03/25 02:37:08;;;;;;;8.88;5.05;;;4.60;70.90;;;;;;4974362;28;20061;-74
2021/03/25 02:39:53;;;;;;;9.20;4.85;;;4.60;70.70;;;;;;4974436;28;20027;-73
2021/03/25 02:42:25;;;;;;;10.95;5.47;;;4.50;70.70;;;;;;4974578;28;20023;-73
2021/03/25 02:45:00;;;;;;;11.02;5.35;;;4.50;70.90;;;;;;4974429;28;20485;-73
2021/03/25 02:47:29;;;;;;;12.30;5.05;;;4.40;71.30;;;;;;4974137;28;20033;-73
2021/03/25 02:50:03;;;;;;;10.80;5.00;;;4.40;71.60;;;;;;4974477;28;20062;-74
2021/03/25 02:52:35;;;;;;;10.05;5.05;;;4.40;71.60;;;;;;4974170;28;20353;-73
2021/03/25 02:55:04;;;;;;;10.88;5.22;;;4.40;71.60;;;;;;4974207;28;20038;-73
2021/03/25 02:57:52;;;;;;;12.55;5.07;;;4.40;71.70;;;;;;4974144;28;20081;-73
2021/03/25 03:00:24;;;;;;;8.15;4.53;;;4.40;71.80;;;;;;4974219;28;20384;-74
2021/03/25 03:02:55;;;;;;;12.77;4.90;;;4.40;71.70;;;;;;4973944;28;20458;-73
2021/03/25 03:05:24;;;;;;;8.55;4.88;;;4.40;71.60;;;;;;4974212;28;20027;-74
2021/03/25 03:08:08;;;;;;;10.05;4.68;;;4.50;71.40;;;;;;4973951;28;20067;-74
2021/03/25 03:10:39;;;;;;;9.65;4.88;;;4.60;71.10;;;;;;4973900;28;20022;-73
2021/03/25 03:13:07;;;;;;;10.00;4.60;;;4.60;70.90;;;;;;4974058;28;20031;-74
2021/03/25 03:15:46;;;;;;;12.50;4.68;;;4.60;70.80;;;;;;4973882;28;20034;-74
2021/03/25 03:18:18;;;;;;;9.40;4.70;;;4.50;71.00;;;;;;4973830;28;20023;-73
2021/03/25 03:20:46;;;;;;;8.55;5.07;;;4.50;71.00;;;;;;4973964;28;20035;-73
2021/03/25 03:23:12;;;;;;;12.35;4.70;;;4.60;71.00;;;;;;4974027;28;20094;-74
2021/03/25 03:25:38;;;;;;;9.23;4.70;;;4.50;71.00;;;;;;4956608;28;20177;-73
2021/03/25 03:28:16;;;;;;;10.02;4.32;;;4.50;70.90;;;;;;4973946;28;20031;-73
2021/03/25 03:30:50;;;;;;;11.45;5.25;;;4.50;70.90;;;;;;4973863;28;20027;-73
2021/03/25 03:33:33;;;;;;;9.93;5.23;;;4.50;70.80;;;;;;4973013;28;20424;-73
2021/03/25 03:36:03;;;;;;;11.43;5.18;;;4.40;70.90;;;;;;4973799;28;20049;-73
2021/03/25 03:38:36;;;;;;;12.10;5.13;;;4.40;70.90;;;;;;4973856;28;20027;-73
2021/03/25 03:41:03;;;;;;;8.60;4.55;;;4.30;71.00;;;;;;4974084;28;20046;-73
2021/03/25 03:43:31;;;;;;;9.95;4.05;;;4.30;71.10;;;;;;4973975;28;20109;-74
2021/03/25 03:46:03;;;;;;;9.30;4.43;;;4.40;71.00;;;;;;4975287;28;20110;-74
2021/03/25 03:48:36;;;;;;;11.18;4.53;;;4.30;71.10;;;;;;4980190;28;20050;-74
2021/03/25 03:51:05;;;;;;;7.57;3.67;;;4.30;71.10;;;;;;4979261;28;20034;-74
2021/03/25 03:53:31;;;;;;;10.45;4.72;;;4.30;71.10;;;;;;4977627;28;20027;-74
2021/03/25 03:56:05;;;;;;;9.90;4.63;;;4.30;71.10;;;;;;4977501;28;20089;-73
2021/03/25 03:58:41;;;;;;;9.27;4.53;;;4.30;71.10;;;;;;4977471;28;20242;-73
2021/03/25 04:01:15;;;;;;;8.82;4.15;;;4.30;71.00;;;;;;4977375;28;20023;-73
2021/03/25 04:03:47;;;;;;;10.95;5.28;;;4.30;71.00;;;;;;4977425;28;20027;-73
2021/03/25 04:06:26;;;;;;;8.32;4.40;;;4.30;71.00;;;;;;4977174;28;20057;-74
2021/03/25 04:09:06;;;;;;;10.25;4.18;;;4.30;70.80;;;;;;4977130;28;20101;-74
2021/03/25 04:11:48;;;;;;;9.52;4.68;;;4.20;70.70;;;;;;4977064;28;20039;-74
2021/03/25 04:14:24;;;;;;;9.20;4.57;;;4.30;70.80;;;;;;4977051;28;20472;-73
2021/03/25 04:16:56;;;;;;;6.50;4.10;;;4.20;70.50;;;;;;4977078;28;20436;-73
2021/03/25 04:19:27;;;;;;;7.10;4.22;;;4.20;70.60;;;;;;4977274;28;20074;-73
2021/03/25 04:22:04;;;;;;;12.18;5.88;;;4.30;70.40;;;;;;4977062;28;20027;-73
2021/03/25 04:24:34;;;;;;;7.82;4.80;;;4.30;70.30;;;;;;4977082;28;20019;-74
2021/03/25 04:27:14;;;;;;;8.05;4.30;;;4.30;70.20;;;;;;4959527;28;20481;-73
2021/03/25 04:29:55;;;;;;;8.40;4.63;;;4.30;69.80;;;;;;4977053;28;20069;-74
2021/03/25 04:32:21;;;;;;;8.13;4.35;;;4.30;69.60;;;;;;4976904;28;20023;-73
2021/03/25 04:34:50;;;;;;;8.10;3.92;;;4.40;69.40;;;;;;4976568;28;20039;-74
2021/03/25 04:37:16;;;;;;;7.45;3.90;;;4.30;69.40;;;;;;4976425;28;20058;-74
2021/03/25 04:39:43;;;;;;;8.18;4.80;;;4.30;69.30;;;;;;4980841;28;20035;-74
2021/03/25 04:42:09;;;;;;;11.13;4.28;;;4.40;69.20;;;;;;4977636;28;20480;-74
2021/03/25 04:45:07;;;;;;;9.40;4.75;;;4.40;69.00;;;;;;4976804;28;20034;-74
2021/03/25 04:47:36;;;;;;;8.70;4.57;;;4.40;68.90;;;;;;4976022;28;20030;-74
2021/03/25 04:50:23;;;;;;;7.50;4.47;;;4.40;68.90;;;;;;4976371;28;20490;-73
2021/03/25 04:52:49;;;;;;;9.48;4.55;;;4.40;68.90;;;;;;4976385;28;20030;-73
2021/03/25 04:55:16;;;;;;;8.98;4.35;;;4.40;68.90;;;;;;4976419;28;20384;-73
2021/03/25 04:57:49;;;;;;;10.77;4.88;;;4.30;69.20;;;;;;4976214;28;20030;-75
2021/03/25 05:00:18;;;;;;;9.52;4.28;;;4.20;69.50;;;;;;4975285;28;20030;-73
2021/03/25 05:02:43;;;;;;;8.23;4.90;;;4.20;69.80;;;;;;4975919;28;20550;-73
2021/03/25 05:05:16;;;;;;;9.23;5.32;;;4.10;70.20;;;;;;4976051;28;20034;-72
2021/03/25 05:07:42;;;;;;;10.05;4.90;;;4.10;71.10;;;;;;4975754;28;20067;-73
2021/03/25 05:10:22;;;;;;;8.73;4.55;;;4.00;70.40;;;;;;4975860;28;20023;-73
2021/03/25 05:12:51;;;;;;;9.00;4.20;;;4.10;70.50;;;;;;4975992;28;20027;-73
2021/03/25 05:15:19;;;;;;;10.73;4.57;;;4.10;70.40;;;;;;4976068;28;20081;-73
2021/03/25 05:18:09;;;;;;;9.52;4.38;;;4.00;70.50;;;;;;4976039;28;20033;-73
2021/03/25 05:20:41;;;;;;;8.27;4.38;;;4.00;70.50;;;;;;4975821;28;20019;-73
2021/03/25 05:23:20;;;;;;;8.30;4.40;;;4.10;70.40;;;;;;4975944;28;20019;-73
2021/03/25 05:25:54;;;;;;;6.50;3.90;;;4.10;70.10;;;;;;4975981;28;20033;-73
2021/03/25 05:28:32;;;;;;;10.50;4.45;;;4.10;70.00;;;;;;4975726;28;20030;-72
2021/03/25 05:31:00;;;;;;;10.57;4.65;;;4.10;69.90;;;;;;4975734;28;20487;-73
2021/03/25 05:33:29;;;;;;;11.32;4.15;;;4.20;69.70;;;;;;4975506;28;20122;-72
2021/03/25 05:36:00;;;;;;;9.00;4.22;;;4.20;69.40;;;;;;4975503;28;20085;-72
2021/03/25 05:38:26;;;;;;;16.02;4.80;;;4.30;69.40;;;;;;4958147;28;20031;-73
2021/03/25 05:40:54;;;;;;;10.52;5.45;;;4.30;69.00;;;;;;4975487;28;20089;-72
2021/03/25 05:43:31;;;;;;;12.35;5.10;;;4.30;68.80;;;;;;4975400;28;20029;-73
2021/03/25 05:46:14;;;;;;;11.93;5.10;;;4.40;68.60;;;;;;4975512;28;20100;-72
2021/03/25 05:48:51;;;;;;;12.50;5.07;;;4.40;68.40;;;;;;4975257;28;20035;-74
2021/03/25 05:51:29;;;;;;;8.82;4.97;;;4.40;68.30;;;;;;4975360;28;20019;-74
2021/03/25 05:54:04;;;;;;;15.85;5.57;;;4.40;68.30;;;;;;4975301;28;20058;-75
2021/03/25 05:56:50;;;;;;;10.20;5.38;;;4.40;69.20;;;;;;4975233;28;20027;-74
2021/03/25 05:59:18;;;;;;;13.07;4.70;;;4.40;68.40;;;;;;4975093;28;20037;-73
2021/03/25 06:02:00;;;;;;;13.90;5.88;;;4.40;68.30;;;;;;4975028;28;20134;-74
2021/03/25 06:04:34;;;;;;;13.20;6.30;;;4.50;68.40;;;;;;4975047;28;20380;-74
2021/03/25 06:07:15;;;;;;;15.60;5.88;;;4.50;68.30;;;;;;4974948;28;20035;-73
2021/03/25 06:10:07;;;;;;;9.70;5.15;;;4.60;68.20;;;;;;4974717;28;20015;-74
2021/03/25 06:12:39;;;;;;;10.25;5.03;;;4.60;67.80;;;;;;4974789;28;20027;-73
2021/03/25 06:15:16;;;;;;;10.13;5.05;;;4.70;67.60;;;;;;4974605;28;20030;-74
2021/03/25 06:17:56;;;;;;;16.13;5.07;;;4.80;67.40;;;;;;4974417;28;20023;-74
2021/03/25 06:20:38;;;;;;;10.10;4.75;;;4.90;67.10;;;;;;4974186;28;20428;-74
2021/03/25 06:23:32;;;;;;;9.88;4.88;;;5.00;66.50;;;;;;4974320;28;20384;-74
2021/03/25 06:26:18;;;;;;;10.90;4.90;;;5.10;66.10;;;;;;4974357;28;20034;-74
2021/03/25 06:29:02;;;;;;;11.70;4.97;;;5.10;65.80;;;;;;4973754;28;20117;-74
2021/03/25 06:31:36;;;;;;;9.10;4.70;;;5.10;65.60;;;;;;4973821;28;20015;-75
2021/03/25 06:34:16;;;;;;;11.27;4.90;;;5.30;65.30;;;;;;4974060;28;20030;-74
2021/03/25 06:37:04;;;;;;;17.77;5.13;;;5.40;64.70;;;;;;4974157;28;20050;-75
2021/03/25 06:40:08;;;;;;;12.07;4.93;;;5.50;64.30;;;;;;4974220;28;20034;-72
2021/03/25 06:42:47;;;;;;;8.77;5.00;;;5.60;63.90;;;;;;4941627;28;20039;-72
2021/03/25 06:45:35;;;;;;;10.77;5.65;;;5.70;63.50;;;;;;4974308;28;20384;-73
2021/03/25 06:48:24;;;;;;;12.23;5.25;;;5.80;63.10;;;;;;4974214;28;20041;-72
2021/03/25 06:50:52;;;;;;;10.75;5.32;;;5.90;62.90;;;;;;4963575;28;20718;-74
2021/03/25 06:53:33;;;;;;;9.80;5.38;;;6.00;62.40;;;;;;4974326;28;20027;-74
2021/03/25 06:56:08;;;;;;;9.57;5.18;;;6.20;62.00;;;;;;4973931;28;20061;-74
2021/03/25 06:58:49;;;;;;;12.25;5.15;;;6.30;61.70;;;;;;4974122;28;20031;-73
2021/03/25 07:01:26;;;;;;;11.20;5.53;;;6.40;61.10;;;;;;4974151;28;20085;-73
2021/03/25 07:03:56;;;;;;;10.20;4.90;;;6.60;60.80;;;;;;4973909;28;20027;-72
2021/03/25 07:06:24;;;;;;;8.18;5.03;;;6.70;60.60;;;;;;4973944;28;20110;-73
2021/03/25 07:08:52;;;;;;;6.93;4.15;;;6.80;60.10;;;;;;4973731;28;20043;-73
2021/03/25 07:11:19;;;;;;;12.82;5.28;;;6.90;59.80;;;;;;4973798;28;20055;-73
2021/03/25 07:14:02;;;;;;;7.35;4.32;;;7.10;59.20;;;;;;4973798;28;20048;-73
2021/03/25 07:16:37;;;;;;;11.00;4.63;;;7.20;58.80;;;;;;4973894;28;20029;-73
2021/03/25 07:19:12;;;;;;;10.15;5.07;;;7.30;59.10;;;;;;4973813;28;20506;-73
2021/03/25 07:21:41;;;;;;;10.13;5.13;;;7.40;58.00;;;;;;4973896;28;20098;-73
2021/03/25 07:24:37;;;;;;;9.40;4.35;;;7.60;57.70;;;;;;4977982;28;20031;-73
2021/03/25 07:27:06;;;;;;;7.80;5.07;;;7.70;57.50;;;;;;4977833;28;20023;-73
2021/03/25 07:29:34;;;;;;;10.02;5.13;;;7.80;56.80;;;;;;4977851;28;20031;-73
2021/03/25 07:32:06;;;;;;;13.05;4.75;;;8.10;56.60;;;;;;4977622;28;20078;-73
2021/03/25 07:34:41;;;;;;;11.13;5.22;;;8.30;56.20;;;;;;4977147;28;20031;-73
2021/03/25 07:37:09;;;;;;;10.25;5.80;;;8.40;55.60;;;;;;4977302;28;20113;-73
2021/03/25 07:39:38;;;;;;;12.45;5.70;;;8.60;56.60;;;;;;4977245;28;20077;-73
2021/03/25 07:42:04;;;;;;;15.10;7.03;;;8.70;57.50;;;;;;4977412;28;20058;-74
2021/03/25 07:44:34;;;;;;;11.27;6.15;;;8.80;57.40;;;;;;4977468;28;20023;-73
2021/03/25 07:47:04;;;;;;;12.23;6.10;;;9.00;57.20;;;;;;4977286;28;20023;-73
2021/03/25 07:49:33;;;;;;;18.98;6.90;;;9.20;57.10;;;;;;4977490;28;20480;-73
2021/03/25 07:52:04;;;;;;;12.25;5.95;;;9.30;56.70;;;;;;4977330;28;20022;-73
2021/03/25 07:54:38;;;;;;;12.50;5.80;;;9.40;56.20;;;;;;4977303;28;20022;-73
2021/03/25 07:57:08;;;;;;;8.35;5.00;;;9.60;55.80;;;;;;4977102;28;20033;-74
2021/03/25 07:59:53;;;;;;;8.18;4.70;;;9.80;54.90;;;;;;4977188;28;20034;-73
2021/03/25 08:02:33;;;;;;;11.43;5.03;;;10.00;54.30;;;;;;4976983;28;20027;-73
2021/03/25 08:05:19;;;;;;;8.40;4.57;;;10.20;52.50;;;;;;4977109;28;20055;-72
2021/03/25 08:07:46;;;;;;;13.63;5.28;;;10.40;51.50;;;;;;4948894;28;20042;-75
2021/03/25 08:10:22;;;;;;;14.73;4.97;;;10.50;50.70;;;;;;4959115;28;20031;-73
2021/03/25 08:12:48;;;;;;;13.15;4.68;;;10.80;50.50;;;;;;4976582;28;20015;-72
2021/03/25 08:15:17;;;;;;;10.27;4.20;;;10.90;50.10;;;;;;4976590;28;20097;-73
2021/03/25 08:18:01;;;;;;;8.20;4.35;;;11.10;49.80;;;;;;4959395;28;20155;-74
2021/03/25 08:20:39;;;;;;;8.80;4.63;;;11.40;50.00;;;;;;4959415;28;20023;-75
2021/03/25 08:23:42;;;;;;;16.15;5.30;;;11.50;50.50;;;;;;4976675;28;20090;-74
2021/03/25 08:26:34;;;;;;;10.35;4.35;;;11.70;51.10;;;;;;4975429;28;20030;-76
2021/03/25 08:29:18;;;;;;;15.80;4.95;;;12.00;50.80;;;;;;4951361;28;20152;-76
2021/03/25 08:32:02;;;;;;;19.40;5.32;;;12.30;53.30;;;;;;4976505;28;20030;-74
2021/03/25 08:34:36;;;;;;;11.77;4.68;;;12.80;52.50;;;;;;4974787;28;20027;-73
2021/03/25 08:37:14;;;;;;;8.35;4.40;;;13.10;52.00;;;;;;4975076;28;20039;-74
2021/03/25 08:39:57;;;;;;;10.40;4.68;;;13.40;50.90;;;;;;4959033;28;20035;-74
2021/03/25 08:42:34;;;;;;;17.40;4.40;;;13.70;48.30;;;;;;4959199;28;20034;-75
2021/03/25 08:45:20;;;;;;;9.70;4.05;;;14.00;47.10;;;;;;4976323;28;20031;-76
2021/03/25 08:48:02;;;;;;;7.43;3.92;;;14.40;46.20;;;;;;4976102;28;20066;-76
2021/03/25 08:50:41;;;;;;;14.57;4.75;;;14.60;43.70;;;;;;4976227;28;20023;-75
2021/03/25 08:53:30;;;;;;;9.60;4.60;;;14.90;42.00;;;;;;4974654;28;20038;-75
2021/03/25 08:56:00;;;;;;;7.93;3.80;;;15.20;40.60;;;;;;4958694;28;20027;-75
2021/03/25 08:58:33;;;;;;;11.93;5.05;;;15.40;39.40;;;;;;4976169;28;20077;-73
2021/03/25 09:01:03;;;;;;;6.90;4.18;;;15.50;38.10;;;;;;4958870;28;20399;-75
2021/03/25 09:03:55;;;;;;;13.18;4.93;;;15.60;38.10;;;;;;4958431;28;20027;-75
2021/03/25 09:06:24;;;;;;;13.10;5.38;;;15.80;37.40;;;;;;4975814;28;20106;-75
2021/03/25 09:09:00;;;;;;;7.82;4.90;;;15.90;36.30;;;;;;4975805;28;20126;-75
2021/03/25 09:11:26;;;;;;;11.90;4.43;;;16.10;36.40;;;;;;4958189;28;20027;-74
2021/03/25 09:13:59;;;;;;;8.48;4.25;;;16.20;36.10;;;;;;4958202;28;20380;-75
2021/03/25 09:16:34;;;;;;;7.65;4.18;;;16.30;35.50;;;;;;4975655;28;20073;-74
2021/03/25 09:19:19;;;;;;;7.05;3.25;;;16.40;34.10;;;;;;4975858;28;20030;-74
2021/03/25 09:21:48;;;;;;;8.48;4.07;;;16.50;33.10;;;;;;4957860;28;20058;-74
2021/03/25 09:24:15;;;;;;;8.35;4.15;;;16.50;31.90;;;;;;4957799;28;20031;-73
2021/03/25 09:26:40;;;;;;;9.43;4.05;;;16.50;31.30;;;;;;4957527;28;20023;-74
2021/03/25 09:29:10;;;;;;;8.68;3.90;;;16.60;30.80;;;;;;4975448;28;20530;-75
2021/03/25 09:31:54;;;;;;;10.65;4.15;;;16.70;32.00;;;;;;4975423;28;20031;-73
2021/03/25 09:34:22;;;;;;;11.82;5.45;;;16.80;30.40;;;;;;4957971;28;20026;-72
2021/03/25 09:36:49;;;;;;;8.45;4.45;;;16.60;30.30;;;;;;4994459;28;20074;-73
2021/03/25 09:39:18;;;;;;;10.07;4.10;;;16.70;30.20;;;;;;4994703;28;20026;-72
2021/03/25 09:41:43;;;;;;;11.70;4.65;;;16.80;30.00;;;;;;4994723;28;20022;-73
2021/03/25 09:44:15;;;;;;;9.07;4.60;;;17.00;30.40;;;;;;4994661;28;20093;-74
2021/03/25 09:46:51;;;;;;;9.73;4.68;;;16.90;30.00;;;;;;4993915;28;20022;-74
2021/03/25 09:51:47;;;;;;;8.13;4.20;;;17.10;29.60;;;;;;4994525;28;20034;-74
2021/03/25 09:54:26;;;;;;;11.68;6.07;;;17.30;29.70;;;;;;4994288;28;20037;-74
2021/03/25 09:57:29;;;;;;;11.93;6.82;;;17.40;29.40;;;;;;4976747;28;20030;-73
2021/03/25 10:00:32;;;;;;;12.75;6.30;;;17.30;29.40;;;;;;4993129;28;20080;-74
2021/03/25 10:03:01;;;;;;;12.75;7.13;;;16.90;28.70;;;;;;4994012;28;20034;-74
2021/03/25 10:05:47;;;;;;;12.85;6.28;;;16.50;28.70;;;;;;4976548;28;20118;-75
2021/03/25 10:08:12;;;;;;;;;;;16.50;29.00;;;;;;4994535;28;20053;-74
2021/03/25 10:10:38;;;;;;;;;;;16.30;29.10;;;;;;4993291;28;19906;-74
2021/03/25 10:13:04;;;;;;;15.73;6.63;;;16.20;29.40;;;;;;4992862;28;19993;-73
2021/03/25 10:15:42;;;;;;;13.93;6.78;;;16.10;29.90;;;;;;4993794;28;20276;-74
2021/03/25 10:18:12;;;;;;;21.13;10.85;;;16.20;29.90;;;;;;4994051;28;20498;-75
2021/03/25 10:21:08;;;;;;;12.15;6.95;;;16.30;30.00;;;;;;4994053;28;20031;-74
2021/03/25 10:23:37;;;;;;;12.05;6.53;;;16.30;29.90;;;;;;4976558;28;20026;-73
2021/03/25 10:26:11;;;;;;;12.98;7.07;;;16.50;30.00;;;;;;4992660;28;20030;-73
2021/03/25 10:28:44;;;;;;;14.50;6.85;;;16.70;30.10;;;;;;4993888;28;20034;-73
2021/03/25 10:31:26;;;;;;;14.68;6.90;;;16.70;30.10;;;;;;4989222;28;20109;-74
2021/03/25 10:34:14;;;;;;;16.08;7.60;;;17.00;30.10;;;;;;4991925;28;20034;-74
2021/03/25 10:36:48;;;;;;;16.70;7.13;;;16.90;30.40;;;;;;4975054;28;20046;-74
2021/03/25 10:39:26;;;;;;;13.50;6.80;;;16.90;29.90;;;;;;4956733;28;20082;-74
2021/03/25 10:41:53;;;;;;;13.32;6.90;;;16.80;29.80;;;;;;4956961;28;20522;-74
2021/03/25 10:44:23;;;;;;;11.30;6.28;;;16.90;29.90;;;;;;4974090;28;20109;-74
2021/03/25 10:46:49;;;;;;;12.80;6.75;;;16.90;29.80;;;;;;4956830;28;20027;-73
2021/03/25 10:49:23;;;;;;;12.15;5.97;;;17.20;29.40;;;;;;4956974;28;20384;-73
2021/03/25 10:51:50;;;;;;;12.38;6.35;;;17.40;29.70;;;;;;4973941;28;20109;-73
2021/03/25 10:54:35;;;;;;;11.00;6.28;;;17.50;29.20;;;;;;4973980;28;20383;-73
2021/03/25 10:57:20;;;;;;;8.50;4.70;;;17.50;29.00;;;;;;4970444;28;20101;-74
2021/03/25 11:00:00;;;;;;;9.40;5.57;;;17.30;29.10;;;;;;4973768;28;20400;-74
2021/03/25 11:02:28;;;;;;;10.50;6.25;;;17.10;29.10;;;;;;4956431;28;20073;-74
2021/03/25 11:05:07;;;;;;;7.88;5.05;;;17.40;29.10;;;;;;4972435;28;20018;-74
2021/03/25 11:07:45;;;;;;;7.28;4.32;;;17.70;28.80;;;;;;4973232;28;20030;-73
2021/03/25 11:10:27;;;;;;;12.85;5.63;;;18.10;28.80;;;;;;4973892;28;20510;-74
2021/03/25 11:13:07;;;;;;;9.35;4.80;;;18.30;28.60;;;;;;4956272;28;20049;-74
2021/03/25 11:15:35;;;;;;;8.43;4.80;;;18.50;28.30;;;;;;4973413;28;20023;-73
2021/03/25 11:18:18;;;;;;;6.80;4.20;;;18.70;27.70;;;;;;4973481;28;20042;-73
2021/03/25 11:20:44;;;;;;;9.07;4.60;;;19.00;27.40;;;;;;4972154;28;20031;-75
2021/03/25 11:23:14;;;;;;;8.88;4.78;;;19.30;27.10;;;;;;4973537;28;20365;-74
2021/03/25 11:25:40;;;;;;;9.55;4.70;;;19.70;26.40;;;;;;4956137;28;20027;-74
2021/03/25 11:28:17;;;;;;;6.18;4.28;;;19.80;26.00;;;;;;4973754;28;20626;-74
2021/03/25 11:30:56;;;;;;;7.75;4.55;;;19.70;26.80;;;;;;4955924;28;20026;-74
2021/03/25 11:33:28;;;;;;;6.93;4.40;;;19.50;26.10;;;;;;4956187;28;20499;-74
2021/03/25 11:35:56;;;;;;;7.50;4.72;;;19.40;26.10;;;;;;4985684;28;20126;-73
2021/03/25 11:38:24;;;;;;;7.80;4.88;;;19.30;26.00;;;;;;4993016;28;20022;-74
2021/03/25 11:40:52;;;;;;;7.82;4.88;;;19.20;25.80;;;;;;4993023;28;20037;-74
2021/03/25 11:43:23;;;;;;;9.45;4.88;;;19.00;25.70;;;;;;4975650;28;20069;-75
2021/03/25 11:45:51;;;;;;;7.45;4.18;;;18.80;26.30;;;;;;4993014;28;20109;-73
2021/03/25 11:48:29;;;;;;;6.10;3.78;;;18.70;26.60;;;;;;4991312;28;20046;-74
2021/03/25 11:51:16;;;;;;;8.35;4.53;;;18.70;27.00;;;;;;4992604;28;20471;-74
2021/03/25 11:53:47;;;;;;;5.80;3.83;;;18.60;27.10;;;;;;4992308;28;20045;-73
2021/03/25 11:56:20;;;;;;;6.22;4.05;;;18.70;26.90;;;;;;4975151;28;20025;-75
2021/03/25 11:59:08;;;;;;;8.40;4.88;;;19.00;26.60;;;;;;4991360;28;20463;-73
2021/03/25 12:01:34;;;;;;;7.03;4.55;;;19.10;27.00;;;;;;4991199;28;20038;-74
2021/03/25 12:04:25;;;;;;;9.23;4.65;;;19.20;27.10;;;;;;4975622;28;20527;-74
2021/03/25 12:07:13;;;;;;;9.13;4.55;;;19.00;27.20;;;;;;4992282;28;20491;-74
2021/03/25 12:10:04;;;;;;;7.50;4.35;;;18.90;27.30;;;;;;4977791;28;20399;-74
2021/03/25 12:12:30;;;;;;;10.23;5.15;;;18.80;27.70;;;;;;4994642;28;20061;-74
2021/03/25 12:14:56;;;;;;;7.40;4.53;;;18.60;27.80;;;;;;4996163;28;20038;-74
2021/03/25 12:17:23;;;;;;;8.52;4.60;;;18.40;28.10;;;;;;4996354;28;20056;-74
2021/03/25 12:19:49;;;;;;;7.28;4.68;;;18.30;28.40;;;;;;4978811;28;20073;-74
2021/03/25 12:22:28;;;;;;;9.10;4.93;;;18.40;28.30;;;;;;4996245;28;20026;-74
2021/03/25 12:24:54;;;;;;;7.85;4.10;;;18.70;28.40;;;;;;4979028;28;20030;-74
2021/03/25 12:27:23;;;;;;;6.15;4.20;;;19.10;28.10;;;;;;4996240;28;20220;-74
2021/03/25 12:29:51;;;;;;;6.70;4.15;;;19.30;28.00;;;;;;4978203;28;20037;-74
2021/03/25 12:32:23;;;;;;;9.52;4.20;;;19.30;28.00;;;;;;4995166;28;20395;-75
2021/03/25 12:34:48;;;;;;;6.18;3.83;;;19.40;27.90;;;;;;4990196;28;20073;-74
2021/03/25 12:37:15;;;;;;;5.93;3.70;;;19.20;27.60;;;;;;4978675;28;20504;-74
2021/03/25 12:39:40;;;;;;;6.47;3.25;;;19.20;27.50;;;;;;4996117;28;20030;-74
2021/03/25 12:42:06;;;;;;;9.90;4.25;;;19.30;27.70;;;;;;4987853;28;20097;-74
2021/03/25 12:44:33;;;;;;;6.22;3.88;;;19.30;28.70;;;;;;4995798;28;20097;-74
2021/03/25 12:47:00;;;;;;;4.20;3.10;;;19.10;28.40;;;;;;4978239;28;20027;-74
2021/03/25 12:49:26;;;;;;;5.22;3.45;;;19.00;28.20;;;;;;4978288;28;20022;-74
2021/03/25 12:51:51;;;;;;;4.07;2.78;;;18.70;28.20;;;;;;4995747;28;20026;-74
2021/03/25 12:54:17;;;;;;;5.43;3.25;;;18.40;28.20;;;;;;4978491;28;20022;-74
2021/03/25 12:56:43;;;;;;;4.35;2.72;;;18.30;28.70;;;;;;4995677;28;20379;-74
2021/03/25 12:59:14;;;;;;;4.32;3.40;;;18.10;29.20;;;;;;4995591;28;20073;-74
2021/03/25 13:01:40;;;;;;;8.27;3.38;;;17.70;29.70;;;;;;4995618;28;20116;-73
2021/03/25 13:04:06;;;;;;;5.47;3.28;;;17.30;30.40;;;;;;4995738;28;20038;-74
2021/03/25 13:06:32;;;;;;;10.10;3.17;;;17.40;31.00;;;;;;4995300;28;20056;-74
2021/03/25 13:08:57;;;;;;;7.25;2.88;;;17.20;31.50;;;;;;4977852;28;20038;-74
2021/03/25 13:11:26;;;;;;;4.60;2.80;;;17.30;32.00;;;;;;4995104;28;20367;-73
2021/03/25 13:13:53;;;;;;;7.70;3.38;;;17.10;32.20;;;;;;4995182;28;20471;-74
2021/03/25 13:16:20;;;;;;;4.35;2.90;;;17.20;32.70;;;;;;4995369;28;20121;-74
2021/03/25 13:18:46;;;;;;;4.90;3.03;;;17.20;32.80;;;;;;4995088;28;20043;-73
2021/03/25 13:21:11;;;;;;;5.18;3.00;;;17.40;33.50;;;;;;4994354;28;20384;-74
2021/03/25 13:23:37;;;;;;;5.05;3.20;;;17.30;32.70;;;;;;4995151;28;20038;-74